Terminal Aerodrome Forecast
Issued by NWS Bismarck, ND

Current Version | Previous Version | Text Only | Print | Product List | Glossary On
Versions: 1 2 3 4 5 6 7 8 9 10 11 12 13 14 15 16 17 18 19 20 21 22 23 24
000
FTUS43 KBIS 311400 AAA
TAFISN
TAF AMD
KISN 311405Z 3114/0112 16010KT P6SM OVC015
     FM311600 16016G24KT P6SM BKN020
     FM311800 14017G25KT P6SM FEW030 SCT250
     FM010000 13009KT P6SM SCT250=

USA.gov is the U.S. government's official web portal to all federal, state and local government web resources and services.